CSS364 RJAA-ZGSZ
Flight info
| Callsign | CSS364 |
|---|---|
| Flight time | N/A |
| Altitude | 32000 |
| Route | REDEK Y60 ISAKY CAMAS POTET A593 LAMEN/K0922F320 A593 AKARA/K0924S0980 A593 PUD A599 ELNEX/K0909S1040 A599 POU SAREX8XA |
| Aircraft | B763/H-SDE3FGHIM3RWXY/LB1 |
Departure
| Time | 2026-05-01 13:21 |
|---|---|
| Airport | Narita International Airport (RJAA) |
Arrival
| Time | N/A |
|---|---|
| Airport | Shenzhen Bao'an International Airport (ZGSZ) |
| Time | Latitude | Longitude | Altitude | Speed | Heading |
|---|---|---|---|---|---|
| 2026-05-01 12:08 | 35.76795 | 140.37787 | 143 ft | 0 kts | 59° |
| 2026-05-01 13:01 | 35.76791 | 140.37778 | 143 ft | 2 kts | 59° |
| 2026-05-01 13:02 | 35.76783 | 140.37762 | 143 ft | 2 kts | 59° |
| 2026-05-01 13:07 | 35.76702 | 140.37747 | 143 ft | 0 kts | 330° |
| 2026-05-01 13:09 | 35.76721 | 140.37733 | 142 ft | 5 kts | 329° |
| 2026-05-01 13:09 | 35.76765 | 140.37701 | 142 ft | 10 kts | 329° |
| 2026-05-01 13:10 | 35.76823 | 140.37660 | 142 ft | 7 kts | 329° |
| 2026-05-01 13:10 | 35.76857 | 140.37634 | 143 ft | 3 kts | 317° |
| 2026-05-01 13:10 | 35.76865 | 140.37598 | 142 ft | 6 kts | 261° |
| 2026-05-01 13:10 | 35.76862 | 140.37515 | 142 ft | 12 kts | 304° |
| 2026-05-01 13:11 | 35.76949 | 140.37440 | 142 ft | 15 kts | 329° |
| 2026-05-01 13:11 | 35.77027 | 140.37386 | 142 ft | 10 kts | 329° |
| 2026-05-01 13:11 | 35.77081 | 140.37346 | 142 ft | 7 kts | 328° |
| 2026-05-01 13:11 | 35.77114 | 140.37321 | 142 ft | 3 kts | 328° |
| 2026-05-01 13:12 | 35.77131 | 140.37308 | 142 ft | 3 kts | 329° |
| 2026-05-01 13:12 | 35.77175 | 140.37277 | 142 ft | 12 kts | 329° |
| 2026-05-01 13:12 | 35.77271 | 140.37209 | 142 ft | 19 kts | 329° |
| 2026-05-01 13:12 | 35.77339 | 140.37144 | 143 ft | 7 kts | 298° |
| 2026-05-01 13:13 | 35.77344 | 140.37115 | 142 ft | 0 kts | 261° |
| 2026-05-01 13:13 | 35.77344 | 140.37114 | 142 ft | 0 kts | 258° |
| 2026-05-01 13:14 | 35.77339 | 140.37094 | 142 ft | 5 kts | 252° |
| 2026-05-01 13:14 | 35.77337 | 140.37088 | 143 ft | 0 kts | 249° |
| 2026-05-01 13:19 | 35.77318 | 140.37036 | 143 ft | 11 kts | 241° |
| 2026-05-01 13:20 | 35.77228 | 140.36984 | 142 ft | 17 kts | 157° |
| 2026-05-01 13:20 | 35.77096 | 140.37074 | 142 ft | 33 kts | 149° |
| 2026-05-01 13:20 | 35.76772 | 140.37311 | 143 ft | 74 kts | 149° |
| 2026-05-01 13:21 | 35.75370 | 140.38321 | 143 ft | 159 kts | 149° |
| 2026-05-01 13:21 | 35.74308 | 140.39093 | 186 ft | 194 kts | 150° |
| 2026-05-01 13:21 | 35.73087 | 140.39999 | 510 ft | 208 kts | 151° |
| 2026-05-01 13:21 | 35.71873 | 140.40942 | 1118 ft | 212 kts | 152° |
| 2026-05-01 13:22 | 35.70599 | 140.41930 | 1508 ft | 215 kts | 153° |
| 2026-05-01 13:22 | 35.69289 | 140.42921 | 1606 ft | 225 kts | 156° |
| 2026-05-01 13:22 | 35.67906 | 140.43921 | 1717 ft | 235 kts | 156° |
| 2026-05-01 13:22 | 35.66449 | 140.44955 | 1777 ft | 250 kts | 156° |
| 2026-05-01 13:23 | 35.64888 | 140.46046 | 1919 ft | 263 kts | 155° |
| 2026-05-01 13:23 | 35.63304 | 140.47156 | 2405 ft | 261 kts | 156° |
| 2026-05-01 13:23 | 35.61745 | 140.48239 | 2791 ft | 265 kts | 158° |
| 2026-05-01 13:23 | 35.60076 | 140.49388 | 3016 ft | 276 kts | 158° |
| 2026-05-01 13:24 | 35.58425 | 140.50534 | 3575 ft | 274 kts | 158° |
| 2026-05-01 13:24 | 35.56740 | 140.51730 | 3965 ft | 279 kts | 157° |
| 2026-05-01 13:24 | 35.55066 | 140.52939 | 4521 ft | 277 kts | 158° |
| 2026-05-01 13:25 | 35.51708 | 140.55345 | 5351 ft | 284 kts | 158° |
| 2026-05-01 13:25 | 35.49995 | 140.56575 | 5877 ft | 283 kts | 157° |
| 2026-05-01 13:25 | 35.48281 | 140.57803 | 6295 ft | 287 kts | 158° |
| 2026-05-01 13:25 | 35.46566 | 140.59012 | 6754 ft | 285 kts | 162° |
| 2026-05-01 13:26 | 35.44705 | 140.59604 | 7085 ft | 270 kts | 191° |
| 2026-05-01 13:26 | 35.42948 | 140.59053 | 7525 ft | 254 kts | 218° |
| 2026-05-01 13:26 | 35.41678 | 140.57649 | 7924 ft | 249 kts | 233° |
| 2026-05-01 13:26 | 35.40595 | 140.55968 | 8339 ft | 251 kts | 236° |
| 2026-05-01 13:27 | 35.39584 | 140.54250 | 8852 ft | 250 kts | 238° |
| 2026-05-01 13:27 | 35.38759 | 140.52382 | 9158 ft | 253 kts | 257° |
| 2026-05-01 13:27 | 35.39463 | 140.48190 | 9950 ft | 262 kts | 288° |
| 2026-05-01 13:28 | 35.40577 | 140.43843 | 10293 ft | 282 kts | 279° |
| 2026-05-01 13:28 | 35.41017 | 140.41438 | 10433 ft | 296 kts | 278° |
| 2026-05-01 13:29 | 35.41820 | 140.36229 | 10627 ft | 326 kts | 277° |
| 2026-05-01 13:29 | 35.42601 | 140.30548 | 11213 ft | 346 kts | 277° |
| 2026-05-01 13:30 | 35.44147 | 140.18745 | 13209 ft | 356 kts | 277° |
| 2026-05-01 13:31 | 35.44923 | 140.12698 | 14113 ft | 361 kts | 277° |
| 2026-05-01 13:31 | 35.46094 | 140.03517 | 15328 ft | 369 kts | 277° |
| 2026-05-01 13:32 | 35.46885 | 139.97275 | 16107 ft | 374 kts | 277° |
| 2026-05-01 13:33 | 35.47213 | 139.87764 | 17186 ft | 379 kts | 257° |
| 2026-05-01 13:33 | 35.45456 | 139.81686 | 18010 ft | 382 kts | 251° |
| 2026-05-01 13:34 | 35.43544 | 139.75545 | 18671 ft | 389 kts | 251° |
| 2026-05-01 13:34 | 35.41629 | 139.69464 | 19364 ft | 394 kts | 251° |